Flight Track Log - Related Links

Times and Time Zones

All times are in EDT time to prevent confusion due to time zone crossing. See the N600TR flight status page for this flight to view local times or setup timezone preferences in your user account.

Time Position Orientation Groundspeed Altitude Reporting Facility
EDT Latitude Longitude Course Direction KTS MPH feet Rate Location/Type
Sat 06:07:43 PM 40.4603 -80.1275 215° Southwest 221 254 5,100  Level Cleveland Center
Sat 06:08:44 PM 40.3894 -80.1414 188° South 272 313 7,100 2,083 Climbing Cleveland Center
Sat 06:09:00 PM 40.1767 -80.1233 217° Southwest  Level FlightAware Approximate
Sat 06:09:44 PM 40.3061 -80.1611 190° South 287 330 9,300  Level Cleveland Center
Sat 06:10:00 PM 40.1000 -80.1917 214° Southwest  Level FlightAware Approximate
Sat 06:10:44 PM 40.2228 -80.1806 190° South 301 346 11,100  Level Cleveland Center
Sat 06:11:00 PM 40.0233 -80.2600 217° Southwest  Level FlightAware Approximate
Sat 06:11:44 PM 40.1269 -80.2031 190° South 343 395 11,900  Level Cleveland Center
Sat 06:12:00 PM 39.9496 -80.3337 215° Southwest  Level FlightAware Approximate
Sat 06:12:44 PM 40.0356 -80.2767 212° Southwest 377 434 13,600  Level Cleveland Center
Sat 06:13:00 PM 39.8732 -80.4026 215° Southwest  Level FlightAware Approximate
Sat 06:13:44 PM 39.9503 -80.3583 216° Southwest 382 440 15,600  Level Cleveland Center
Sat 06:14:44 PM 39.8544 -80.4369 212° Southwest 393 452 17,000 1,500 Climbing Cleveland Center
Sat 06:15:44 PM 39.7608 -80.5156 213° Southwest 399 459 18,600 1,473 Climbing Cleveland Center
Sat 06:17:31 PM 39.5961 -80.6569 213° Southwest 415 478 21,100 1,456 Climbing Indianapolis Center
Sat 06:18:33 PM 39.4933 -80.7353 210° Southwest 426 490 22,700 1,317 Climbing Indianapolis Center
Sat 06:19:34 PM 39.3906 -80.8133 210° Southwest 427 491 23,800 1,561 Climbing Indianapolis Center
Sat 06:20:36 PM 39.2883 -80.8897 210° Southwest 426 490 25,900 1,073 Climbing Indianapolis Center
Sat 06:21:37 PM 39.1642 -80.9778 209° Southwest 424 488 26,000  Climbing Indianapolis Center
Sat 06:22:39 PM 39.0567 -81.0447 206° Southwest 427 491 25,900 -49 Descending Indianapolis Center
Sat 06:23:40 PM 38.9447 -81.1089 204° Southwest 435 501 25,900  Level Indianapolis Center
Sat 06:24:41 PM 38.8361 -81.1722 204° Southwest 429 494 25,900  Level Indianapolis Center
Sat 06:25:43 PM 38.7258 -81.2372 205° Southwest 430 495 25,900  Level Indianapolis Center
Sat 06:26:44 PM 38.6153 -81.3019 205° Southwest 428 493 25,900 49 Level Indianapolis Center
Sat 06:27:45 PM 38.5075 -81.3675 205° Southwest 421 484 26,000 780 Climbing Indianapolis Center
Sat 06:28:47 PM 38.4031 -81.4339 206° Southwest 414 476 27,500 1,415 Climbing Indianapolis Center
Sat 06:29:48 PM 38.3061 -81.4983 208° Southwest 395 455 28,900 1,220 Climbing Indianapolis Center
Sat 06:30:50 PM 38.2133 -81.5625 209° Southwest 381 438 30,000 927 Climbing Indianapolis Center
Sat 06:31:51 PM 38.1222 -81.6258 209° Southwest 375 432 30,800 738 Climbing Indianapolis Center
Sat 06:32:52 PM 38.0306 -81.6897 209° Southwest 375 432 31,500 585 Climbing Indianapolis Center
Sat 06:33:54 PM 37.9392 -81.7533 209° Southwest 374 430 32,000 244 Climbing Indianapolis Center
Sat 06:34:55 PM 37.8458 -81.8175 209° Southwest 379 436 32,000  Level Indianapolis Center
Sat 06:35:57 PM 37.7292 -81.8903 206° Southwest 383 441 32,000  Level Indianapolis Center
Sat 06:36:58 PM 37.6297 -81.9439 203° Southwest 387 445 32,000  Level Indianapolis Center
Sat 06:37:59 PM 37.5322 -81.9986 204° Southwest 384 442 32,000  Level Indianapolis Center
Sat 06:39:01 PM 37.4317 -82.0522 203° Southwest 387 445 32,000  Level Indianapolis Center
Sat 06:40:02 PM 37.3325 -82.1067 204° Southwest 388 447 32,000  Level Indianapolis Center
Sat 06:41:03 PM 37.2328 -82.1586 203° Southwest 387 445 32,000  Level Indianapolis Center
Sat 06:42:04 PM 37.1317 -82.2111 202° Southwest 391 450 32,000  Level Indianapolis Center
Sat 06:43:06 PM 37.0311 -82.2633 203° Southwest 391 450 32,000  Level Indianapolis Center
Sat 06:44:07 PM 36.9294 -82.3156 202° Southwest 391 450 32,000  Level Indianapolis Center
Sat 06:45:08 PM 36.8283 -82.3697 203° Southwest 392 451 32,000  Level Indianapolis Center
Sat 06:46:09 PM 36.7261 -82.4231 203° Southwest 393 452 32,000  Level Indianapolis Center
Sat 06:47:10 PM 36.6028 -82.4725 198° South 396 456 32,000  Level Indianapolis Center
Sat 06:47:40 PM 36.5614 -82.4881 197° South 394 453 32,000  Level Atlanta Center
Sat 06:48:40 PM 36.4556 -82.5236 195° South 399 459 32,000  Level Atlanta Center
Sat 06:49:40 PM 36.3475 -82.5617 196° South 399 459 32,000  Level Atlanta Center
Sat 06:50:40 PM 36.2397 -82.5972 195° South 399 459 32,000  Level Atlanta Center
Sat 06:51:40 PM 36.1336 -82.6350 196° South 399 459 32,000  Level Atlanta Center
Sat 06:52:40 PM 36.0256 -82.6728 196° South 394 453 32,000  Level Atlanta Center
Sat 06:53:40 PM 35.9197 -82.7131 197° South 399 459 32,000  Level Atlanta Center
Sat 06:54:40 PM 35.8136 -82.7533 197° South 399 459 32,000  Level Atlanta Center
Sat 06:55:40 PM 35.7058 -82.7958 198° South 399 459 32,000  Level Atlanta Center
Sat 06:56:40 PM 35.5997 -82.8333 196° South 405 466 32,000  Level Atlanta Center
Sat 06:57:40 PM 35.4936 -82.8731 197° South 405 466 32,000 -50 Level Atlanta Center
Sat 06:58:40 PM 35.3900 -82.9331 205° Southwest 405 466 31,900 -550 Descending Atlanta Center
Sat 06:59:40 PM 35.2819 -82.9956 205° Southwest 398 458 30,900 -1,350 Descending Atlanta Center
Sat 07:00:40 PM 35.1864 -83.0553 207° Southwest 393 452 29,200 -1,600 Descending Atlanta Center
Sat 07:01:40 PM 35.1033 -83.1094 208° Southwest 382 440 27,700 -1,500 Descending Atlanta Center
Sat 07:02:40 PM 35.0100 -83.1689 208° Southwest 387 445 26,200 -1,450 Descending Atlanta Center
Sat 07:03:40 PM 34.9164 -83.2131 201° Southwest 381 438 24,800 -1,100 Descending Atlanta Center
Sat 07:04:40 PM 34.8228 -83.2467 196° South 362 417 24,000 -400 Descending Atlanta Center
Sat 07:05:40 PM 34.7269 -83.2806 196° South 362 417 24,000  Level Atlanta Center
Sat 07:06:40 PM 34.6356 -83.3519 213° Southwest 352 405 24,000 -1,500 Level Atlanta Center
Sat 07:07:40 PM 34.5483 -83.4208 213° Southwest 364 419 21,000 -3,000 Descending Atlanta Center
Sat 07:08:40 PM 34.4692 -83.4944 217° Southwest 371 427 18,000 -2,800 Descending Atlanta Center
Sat 07:09:40 PM 34.3881 -83.5681 217° Southwest 371 427 15,400 -2,000 Descending Atlanta Center
Sat 07:10:40 PM 34.3028 -83.6264 209° Southwest 360 414 14,000 -700 Descending Atlanta Center
Sat 07:11:40 PM 34.2217 -83.6922 214° Southwest 360 414 14,000 50 Level Atlanta Center
Sat 07:12:40 PM 34.1486 -83.7603 218° Southwest 350 403 14,100 50 Climbing Atlanta Center
Sat 07:13:40 PM 34.0947 -83.8206 223° Southwest 317 365 14,100 -382 Level Atlanta Center
Sat 07:14:30 PM 34.0500 -83.8833 229° Southwest 288 331 13,400 -1,036 Descending Atlanta TRACON
Sat 07:15:30 PM 34.0000 -83.9667 234° Southwest 290 334 12,200 -650 Descending Atlanta TRACON
Sat 07:16:30 PM 33.9500 -84.0333 228° Southwest 294 338 12,100 -100 Descending Atlanta TRACON
Sat 07:17:30 PM 33.9000 -84.1167 234° Southwest 288 331 12,000  Descending Atlanta TRACON
Sat 07:18:30 PM 33.8333 -84.1500 203° Southwest 245 282 12,100 50 Climbing Atlanta TRACON
Sat 07:19:30 PM 33.7667 -84.1833 203° Southwest 243 280 12,100  Level Atlanta TRACON
Sat 07:20:30 PM 33.7167 -84.2167 209° Southwest 247 284 12,100 -200 Level Atlanta TRACON
Sat 07:21:30 PM 33.7167 -84.3000 270° West 249 287 11,700 -952 Descending Atlanta TRACON
Sat 07:22:36 PM 33.7167 -84.4000 270° West 251 289 10,100 -1,429 Descending Atlanta TRACON
Sat 07:23:36 PM 33.7167 -84.4833 270° West 237 273 8,700 -1,200 Descending Atlanta TRACON
Sat 07:24:36 PM 33.7333 -84.5500 287° West 198 228 7,700 -1,350 Descending Atlanta TRACON
Sat 07:25:36 PM 33.7333 -84.6167 270° West 210 242 6,000 -1,350 Descending Atlanta TRACON
Sat 07:26:36 PM 33.7333 -84.7000 270° West 227 261 5,000 -500 Descending Atlanta TRACON
Sat 07:27:36 PM 33.7500 -84.7667 287° West 230 265 5,000 50 Level Atlanta TRACON
Sat 07:28:36 PM 33.7333 -84.8500 256° West 230 265 5,100 50 Climbing Atlanta TRACON
Sat 07:29:36 PM 33.7167 -84.9000 248° West 234 269 5,100  Level Atlanta TRACON
Sat 07:30:36 PM 33.6667 -84.8833 164° South 210 242 5,100  Level Atlanta TRACON
Sat 07:31:36 PM 33.6500 -84.8167 107° East 221 254 5,100  Level Atlanta TRACON
Sat 07:32:36 PM 33.6500 -84.7500 90° East 188 216 5,100  Level Atlanta TRACON
Sat 07:33:36 PM 33.6500 -84.6833 90° East 198 228 5,100 -550 Level Atlanta TRACON
Sat 07:34:36 PM 33.6500 -84.6333 90° East 199 229 4,000 -1,050 Descending Atlanta TRACON
Sat 07:35:36 PM 33.6500 -84.5667 90° East 193 222 3,000 -950 Descending Atlanta TRACON
Sat 07:36:36 PM 33.6500 -84.5000 90° East 143 165 2,100 -800 Descending Atlanta TRACON
Sat 07:37:36 PM 33.6500 -84.4667 90° East 140 161 1,400 -700 Descending Atlanta TRACON

Login

Don't have an account? Register now (free) for customized features, flight alerts, and more!